Time;durP1;ratioP1;P1;durP2;ratioP2;P2;SDS_P1;SDS_P2;PMS_P1;PMS_P2;Temp;Humidity;BMP_temperature;BMP_pressure;BME280_temperature;BME280_humidity;BME280_pressure;Samples;Min_cycle;Max_cycle;Signal;HPM_P1;HPM_P2
2021/08/24 00:03:37;;;;;;;6.53;2.35;;;;;;;15.53;99.69;101001.63;715527;1200;115188;-87
2021/08/24 00:18:39;;;;;;;3.88;2.13;;;;;;;15.24;100.00;101000.86;714095;1176;113933;-86
2021/08/24 00:33:41;;;;;;;3.93;2.10;;;;;;;15.27;100.00;101002.38;715742;1177;114190;-85
2021/08/24 00:48:44;;;;;;;2.95;1.88;;;;;;;15.19;100.00;101018.13;715476;1177;115057;-86
2021/08/24 01:03:49;;;;;;;4.23;2.03;;;;;;;14.97;100.00;101022.83;715241;1176;114064;-85
2021/08/24 01:19:32;;;;;;;3.63;2.25;;;;;;;14.76;100.00;101026.52;713951;1200;114207;-86
2021/08/24 01:35:19;;;;;;;4.35;2.15;;;;;;;14.70;100.00;101045.59;713939;1199;116057;-85
2021/08/24 01:50:37;;;;;;;6.27;1.87;;;;;;;14.61;100.00;101051.70;713708;1200;115384;-79
2021/08/24 02:05:45;;;;;;;6.30;2.55;;;;;;;14.50;100.00;101063.23;713795;1177;114153;-79
2021/08/24 02:21:13;;;;;;;6.20;2.10;;;;;;;14.06;100.00;101071.63;713836;1177;114232;-79
2021/08/24 02:36:16;;;;;;;9.07;2.13;;;;;;;13.69;100.00;101072.28;714062;1200;114958;-80
2021/08/24 02:51:20;;;;;;;3.75;2.15;;;;;;;13.45;100.00;101070.03;714132;1200;114152;-81
2021/08/24 03:06:22;;;;;;;5.30;2.10;;;;;;;13.06;100.00;101068.05;714232;1178;114798;-79
2021/08/24 03:21:29;;;;;;;5.08;2.28;;;;;;;12.90;100.00;101084.33;715760;1178;114233;-81
2021/08/24 03:36:32;;;;;;;3.75;2.25;;;;;;;12.72;100.00;101099.91;714366;1200;115264;-86
2021/08/24 03:51:34;;;;;;;4.30;2.10;;;;;;;12.58;100.00;101106.32;714140;1202;114837;-87
2021/08/24 04:06:36;;;;;;;3.80;2.05;;;;;;;12.52;100.00;101124.42;713763;1204;114296;-86
2021/08/24 04:21:40;;;;;;;4.93;2.63;;;;;;;12.49;100.00;101136.86;714057;1204;114828;-87
2021/08/24 04:36:42;;;;;;;4.10;2.00;;;;;;;12.36;100.00;101151.17;714048;1205;114015;-86
2021/08/24 04:51:44;;;;;;;12.00;7.23;;;;;;;12.46;100.00;101144.20;714102;1205;113968;-86
2021/08/24 05:06:46;;;;;;;3.70;2.48;;;;;;;12.60;100.00;101148.30;714375;1202;115513;-86
2021/08/24 05:21:49;;;;;;;5.57;2.73;;;;;;;12.89;100.00;101160.83;713967;1200;114697;-78
2021/08/24 05:36:51;;;;;;;5.15;2.30;;;;;;;13.10;100.00;101166.09;713999;1200;114743;-80
2021/08/24 05:51:56;;;;;;;6.10;2.40;;;;;;;13.47;100.00;101182.27;714295;1206;114067;-81
2021/08/24 06:06:59;;;;;;;4.48;1.90;;;;;;;14.09;100.00;101191.88;714302;1203;114213;-78
2021/08/24 06:22:01;;;;;;;4.00;2.38;;;;;;;14.55;100.00;101221.23;714329;1176;114655;-77
2021/08/24 06:37:04;;;;;;;5.18;2.40;;;;;;;15.12;100.00;101235.42;714317;1177;114213;-90
2021/08/24 06:52:06;;;;;;;4.15;1.73;;;;;;;15.80;100.00;101229.09;716230;1200;115624;-86
2021/08/24 07:07:09;;;;;;;3.43;1.43;;;;;;;16.24;98.01;101230.25;714252;1202;115322;-82
2021/08/24 07:22:11;;;;;;;7.75;1.80;;;;;;;17.27;96.81;101245.72;718725;1205;114029;-80
2021/08/24 07:37:13;;;;;;;2.68;1.80;;;;;;;18.62;94.73;101248.55;715049;1200;115056;-69
2021/08/24 07:52:16;;;;;;;3.67;1.70;;;;;;;19.36;91.13;101245.89;714029;1176;115370;-77
2021/08/24 08:07:19;;;;;;;3.17;1.27;;;;;;;20.08;88.10;101262.80;714240;1200;114932;-77
2021/08/24 08:22:21;;;;;;;6.27;2.03;;;;;;;20.48;81.11;101252.06;714150;1177;113953;-81
2021/08/24 08:37:24;;;;;;;4.65;1.90;;;;;;;21.11;78.28;101242.08;714569;1203;115661;-84
2021/08/24 08:52:32;;;;;;;4.45;2.28;;;;;;;21.26;72.17;101223.41;715144;1205;114220;-83
2021/08/24 09:07:44;;;;;;;4.15;2.10;;;;;;;21.15;66.63;101234.55;715480;1200;115021;-79
2021/08/24 09:22:47;;;;;;;8.13;3.03;;;;;;;22.26;67.50;101248.75;716222;1202;115632;-80
2021/08/24 09:37:50;;;;;;;4.73;2.03;;;;;;;22.46;60.39;101240.11;717296;1200;114861;-79
2021/08/24 09:52:52;;;;;;;5.98;2.80;;;;;;;21.26;60.32;101236.75;716268;1203;114494;-86
2021/08/24 10:07:58;;;;;;;4.00;2.33;;;;;;;22.67;62.66;101238.46;715966;1200;114056;-84
2021/08/24 10:23:06;;;;;;;7.10;2.83;;;;;;;22.32;60.90;101241.81;714814;1177;114054;-85
2021/08/24 10:38:17;;;;;;;7.88;3.50;;;;;;;22.65;59.59;101248.53;716544;1200;114084;-84
2021/08/24 10:53:25;;;;;;;5.00;2.85;;;;;;;21.74;57.53;101245.25;716088;1200;113094;-82
2021/08/24 11:08:36;;;;;;;28.00;4.58;;;;;;;21.57;59.32;101243.80;715157;1202;114016;-82
2021/08/24 11:24:25;;;;;;;4.03;2.50;;;;;;;20.26;60.60;101235.91;715081;1203;115062;-83
2021/08/24 11:39:37;;;;;;;5.13;2.80;;;;;;;20.04;62.38;101242.84;717131;1202;116395;-83
2021/08/24 11:54:59;;;;;;;7.50;3.17;;;;;;;19.80;64.17;101241.92;715833;1200;115607;-75
2021/08/24 12:10:27;;;;;;;6.83;3.15;;;;;;;20.99;64.84;101231.02;715216;1200;114434;-75
2021/08/24 12:25:36;;;;;;;4.28;2.45;;;;;;;21.99;63.18;101230.77;714441;1203;114976;-74
2021/08/24 12:40:58;;;;;;;5.30;2.80;;;;;;;22.10;63.74;101230.27;714111;1203;114847;-77
2021/08/24 12:56:04;;;;;;;6.73;3.55;;;;;;;24.16;61.53;101231.12;714169;1200;115455;-75
2021/08/24 13:11:26;;;;;;;6.77;3.80;;;;;;;22.59;59.82;101234.06;714256;1177;115509;-75
2021/08/24 13:26:51;;;;;;;9.38;3.75;;;;;;;23.06;58.16;101227.25;714394;1192;114758;-76
2021/08/24 13:41:58;;;;;;;7.13;3.87;;;;;;;23.60;58.64;101222.24;714348;1200;113951;-76
2021/08/24 13:57:06;;;;;;;7.95;3.83;;;;;;;22.68;57.31;101224.89;714550;1204;113845;-76
2021/08/24 14:12:21;;;;;;;25.13;9.67;;;;;;;22.59;56.76;101232.24;714333;1178;114015;-75
2021/08/24 14:27:24;;;;;;;9.13;4.18;;;;;;;33.82;49.09;101234.81;714710;1178;114344;-76
2021/08/24 14:42:54;;;;;;;12.05;7.28;;;;;;;31.45;47.67;101231.13;714855;1178;115283;-75
2021/08/24 14:57:56;;;;;;;9.85;7.55;;;;;;;32.41;43.19;101231.57;714745;1203;115529;-75
2021/08/24 15:12:59;;;;;;;7.83;5.55;;;;;;;27.51;47.07;101227.02;714683;1202;114922;-75
2021/08/24 15:28:06;;;;;;;12.48;7.10;;;;;;;32.59;41.33;101230.36;714941;1200;114037;-82
2021/08/24 15:43:10;;;;;;;15.75;9.10;;;;;;;27.35;41.09;101237.31;714987;1200;115643;-81
2021/08/24 15:58:13;;;;;;;13.18;7.60;;;;;;;22.93;44.93;101227.16;714828;1200;114935;-76
2021/08/24 16:13:18;;;;;;;18.75;10.13;;;;;;;21.99;47.83;101226.24;714506;1200;114929;-76
2021/08/24 16:28:24;;;;;;;12.60;7.60;;;;;;;21.40;49.23;101211.91;715085;1199;114394;-77
2021/08/24 16:43:31;;;;;;;11.83;6.07;;;;;;;20.63;50.99;101199.66;714803;1200;115734;-79
2021/08/24 16:58:33;;;;;;;13.28;6.90;;;;;;;20.15;53.28;101214.98;715373;1202;114282;-79
2021/08/24 17:13:35;;;;;;;15.60;8.20;;;;;;;19.14;54.62;101214.70;714228;1177;114009;-79
2021/08/24 17:28:41;;;;;;;16.68;7.18;;;;;;;18.62;57.03;101229.95;716308;1203;114472;-78
2021/08/24 17:43:44;;;;;;;13.30;6.08;;;;;;;17.93;59.36;101230.98;715750;1177;114799;-79
2021/08/24 17:58:47;;;;;;;23.95;11.75;;;;;;;17.36;62.24;101265.17;715047;1176;114440;-79
2021/08/24 18:13:51;;;;;;;12.80;5.60;;;;;;;16.73;65.13;101266.97;715651;1199;115815;-75
2021/08/24 18:28:54;;;;;;;12.57;5.23;;;;;;;16.32;67.07;101272.69;714316;1177;113833;-75
2021/08/24 18:43:56;;;;;;;31.28;12.53;;;;;;;15.99;69.20;101279.42;714141;1183;114238;-74
2021/08/24 18:58:59;;;;;;;13.03;6.67;;;;;;;15.62;71.82;101284.53;714120;1194;114430;-76
2021/08/24 19:14:18;;;;;;;33.07;14.97;;;;;;;15.27;73.23;101275.44;714160;1200;114118;-74
2021/08/24 19:29:20;;;;;;;29.57;13.43;;;;;;;15.03;75.50;101275.91;714340;1177;115090;-76
2021/08/24 19:44:22;;;;;;;33.47;14.83;;;;;;;14.69;76.75;101272.82;714430;1191;114146;-79
2021/08/24 19:59:24;;;;;;;29.60;13.73;;;;;;;14.11;78.48;101280.47;714516;1200;114239;-77
2021/08/24 20:14:27;;;;;;;35.23;15.00;;;;;;;13.75;81.00;101268.66;714524;1200;114174;-78
2021/08/24 20:29:29;;;;;;;31.55;12.50;;;;;;;13.31;83.08;101260.92;714279;1184;114291;-78
2021/08/24 20:44:33;;;;;;;27.23;11.65;;;;;;;13.01;84.71;101245.88;713981;1203;115230;-78
2021/08/24 20:59:35;;;;;;;25.05;10.00;;;;;;;12.78;86.47;101245.99;713671;1203;114985;-78
2021/08/24 21:14:39;;;;;;;14.50;6.73;;;;;;;12.44;87.84;101227.69;713847;1199;114700;-79
2021/08/24 21:29:41;;;;;;;16.95;7.70;;;;;;;12.42;89.31;101235.70;713761;1200;113993;-77
2021/08/24 21:44:43;;;;;;;16.65;7.40;;;;;;;12.43;90.80;101210.22;713690;1177;113832;-78
2021/08/24 21:59:45;;;;;;;15.48;6.70;;;;;;;12.32;91.49;101201.39;714203;1176;113997;-76
2021/08/24 22:14:47;;;;;;;15.05;6.75;;;;;;;12.07;92.26;101199.91;714508;1180;114956;-77
2021/08/24 22:29:49;;;;;;;14.20;6.60;;;;;;;12.06;93.17;101194.77;713810;1201;114726;-77
2021/08/24 22:44:51;;;;;;;14.88;6.95;;;;;;;11.92;93.26;101190.59;714734;1199;114254;-78
2021/08/24 22:59:54;;;;;;;14.88;6.20;;;;;;;11.99;94.99;101170.77;713851;1203;113944;-79
2021/08/24 23:14:58;;;;;;;15.28;6.78;;;;;;;12.18;96.16;101159.61;713799;1203;113781;-77
2021/08/24 23:30:00;;;;;;;18.95;7.28;;;;;;;12.27;96.94;101152.75;713691;1193;114176;-77
2021/08/24 23:45:02;;;;;;;9.63;5.65;;;;;;;12.41;96.29;101149.83;714203;1200;114473;-77
